Huvudsida
METAR-TAF:

METAR-TAF

Flygplatser :

Belize International Airport

Belize City, Belize

latitud: 17-32N, longitud: 088-18W, höjd: 5 m

Aktuellt väderrapport

Denna rapport gjordes för 51 minuter sedan, klockan 00:00 UTC
Vind 2 kt från nordost
Temperatur 28°C
Fuktighet 84%
Tryck 1014 hPa
Sikt 10 km eller mer
Få moln på en höjd av 1500 ft
Brutna moln på en höjd av 2100 ft

METAR: MZBZ 220000Z 05002KT 9999 FEW015 BKN021 28/25 A2995 Q1014 NOSIG RMK CB TOP-NW/SW DIST SHWR-E

Tid: 18:51 (00:51 UTC)

Väderprognos

Denna rapport gjordes för 3 timmar och 51 minuter sedan, klockan 21:00 UTC
Prognos gäller från 22 kl. 00 UTC till 22 kl. 24 UTC
Vind 7 kt från ost
Sikt 10 km eller mer
Spridda moln på en höjd av 2200 ft
Sannolikhet 30% :
Temporärt
från 22 kl. 00 UTC till 22 kl. 06 UTC
Sikt: 4000 m
Brutna moln på en höjd av 1400 ft
regnskurar

TAF: MZBZ 212100Z 2200/2224 08007KT 9999 SCT022 PROB30 TEMPO 2200/2206 4000 SHRA BKN014

Aktuella väderrapporter och prognoser från 4000 flygplatser (METAR- och TAF-rapporter).

De tillgängliga stationerna syns som gula och röda prickar på kartan.

För musen över prickarna för att se namnen på stationerna.

Klicka sedan för att få väderrapporter och prognoser.

För att ändra kartan: Klicka på de gröna knapparna med ett svart kors på för att zooma in; den gröna knappen med ett streck på för att zooma ut; eller på de gröna pilarna för angränsande kartor.


METAR-TAF: